createdAt,value
2023-03-02T00:02:13.384Z,61.20
2023-03-02T00:05:15.769Z,62.10
2023-03-02T00:08:19.355Z,63.09
2023-03-02T00:11:21.857Z,64.88
2023-03-02T00:14:23.852Z,65.44
2023-03-02T00:17:28.621Z,65.00
2023-03-02T00:20:30.969Z,67.18
2023-03-02T00:23:33.406Z,67.22
2023-03-02T00:26:36.620Z,67.70
2023-03-02T00:29:38.871Z,68.13
2023-03-02T00:32:41.836Z,68.26
2023-03-02T00:35:43.881Z,68.31
2023-03-02T00:38:45.889Z,68.34
2023-03-02T00:41:48.812Z,68.65
2023-03-02T00:44:52.561Z,68.83
2023-03-02T00:47:55.462Z,69.47
2023-03-02T00:51:01.270Z,69.69
2023-03-02T00:54:03.451Z,69.43
2023-03-02T00:57:05.500Z,69.51
2023-03-02T01:00:08.505Z,69.32
2023-03-02T01:03:13.857Z,69.12
2023-03-02T01:06:21.185Z,68.88
2023-03-02T01:09:23.737Z,69.12
2023-03-02T01:12:26.446Z,69.34
2023-03-02T01:15:28.462Z,69.18
2023-03-02T01:18:30.508Z,68.93
2023-03-02T01:21:32.822Z,69.68
2023-03-02T01:24:35.331Z,70.00
2023-03-02T01:27:37.315Z,70.13
2023-03-02T01:30:40.172Z,70.26
2023-03-02T01:33:42.372Z,70.84
2023-03-02T01:36:47.615Z,70.86
2023-03-02T01:39:51.045Z,71.22
2023-03-02T01:43:02.448Z,71.80
2023-03-02T01:46:25.719Z,71.84
2023-03-02T01:49:28.677Z,71.38
2023-03-02T01:52:35.237Z,71.70
2023-03-02T01:55:39.795Z,71.88
2023-03-02T01:58:42.297Z,71.36
2023-03-02T02:01:52.462Z,71.74
2023-03-02T02:04:56.632Z,72.12
2023-03-02T02:07:58.788Z,72.45
2023-03-02T02:11:01.849Z,72.18
2023-03-02T02:14:04.063Z,71.74
2023-03-02T02:17:06.282Z,72.55
2023-03-02T02:20:24.239Z,71.78
2023-03-02T02:23:48.153Z,71.40
2023-03-02T02:26:53.361Z,71.10
2023-03-02T02:30:00.524Z,70.83
2023-03-02T02:33:05.435Z,70.36
2023-03-02T02:36:13.424Z,70.53
2023-03-02T02:39:22.457Z,70.74
2023-03-02T02:42:38.713Z,70.61
2023-03-02T02:45:41.220Z,70.23
2023-03-02T02:48:44.317Z,70.50
2023-03-02T02:51:46.510Z,70.21
2023-03-02T02:54:51.757Z,69.98
2023-03-02T02:57:58.186Z,69.66
2023-03-02T03:01:02.103Z,69.19
2023-03-02T03:04:06.314Z,69.24
2023-03-02T03:07:13.446Z,69.32
2023-03-02T03:10:23.307Z,69.11
2023-03-02T03:13:25.571Z,69.34
2023-03-02T03:16:30.695Z,69.68
2023-03-02T03:19:33.856Z,69.21
2023-03-02T03:22:38.180Z,69.30
2023-03-02T03:25:41.782Z,69.22
2023-03-02T03:28:44.405Z,69.87
2023-03-02T03:31:46.669Z,68.99
2023-03-02T03:34:49.620Z,69.47
2023-03-02T03:37:52.496Z,69.26
2023-03-02T03:40:55.266Z,69.07
2023-03-02T03:43:57.921Z,68.31
2023-03-02T03:47:00.490Z,68.97
2023-03-02T03:50:03.878Z,68.63
2023-03-02T03:53:08.703Z,69.15
2023-03-02T03:56:11.251Z,68.94
2023-03-02T03:59:18.210Z,68.82
2023-03-02T04:02:21.280Z,70.13
2023-03-02T04:05:23.648Z,69.58
2023-03-02T04:08:26.532Z,69.09
2023-03-02T04:11:28.774Z,69.03
2023-03-02T04:14:31.646Z,68.64
2023-03-02T04:17:34.104Z,68.87
2023-03-02T04:20:37.590Z,68.75
2023-03-02T04:23:40.245Z,68.37
2023-03-02T04:26:44.886Z,68.38
2023-03-02T04:29:47.422Z,68.06
2023-03-02T04:32:49.889Z,67.88
2023-03-02T04:35:52.026Z,67.65
2023-03-02T04:38:55.024Z,67.63
2023-03-02T04:41:59.838Z,67.51
2023-03-02T04:45:02.293Z,67.17
2023-03-02T04:48:06.046Z,67.40
2023-03-02T04:51:24.290Z,66.52
2023-03-02T04:54:27.037Z,66.24
2023-03-02T04:57:30.360Z,65.30
2023-03-02T05:00:34.315Z,64.49
2023-03-02T05:03:36.406Z,64.35
2023-03-02T05:06:38.618Z,64.21
2023-03-02T05:09:41.076Z,64.03
2023-03-02T05:13:02.452Z,63.26
2023-03-02T05:16:05.529Z,63.31
2023-03-02T05:19:10.396Z,63.39
2023-03-02T05:22:12.460Z,63.45
2023-03-02T05:25:14.715Z,62.56
2023-03-02T05:28:18.001Z,62.86
2023-03-02T05:31:24.311Z,62.53
2023-03-02T05:34:26.439Z,60.71
2023-03-02T05:37:28.443Z,60.64
2023-03-02T05:40:31.371Z,61.22
2023-03-02T05:43:34.034Z,60.83
2023-03-02T05:46:38.771Z,59.91
2023-03-02T05:49:42.179Z,59.89
2023-03-02T05:52:45.745Z,59.42
2023-03-02T05:55:48.241Z,59.48
2023-03-02T05:58:50.276Z,59.44
2023-03-02T06:01:58.818Z,59.76
2023-03-02T06:05:01.605Z,59.06
2023-03-02T06:08:04.802Z,58.97
2023-03-02T06:11:08.039Z,58.89
2023-03-02T06:14:10.141Z,58.15
2023-03-02T06:17:12.417Z,57.69
2023-03-02T06:20:15.489Z,56.94
2023-03-02T06:23:17.629Z,57.18
2023-03-02T06:26:19.729Z,56.97
2023-03-02T06:29:23.372Z,57.02
2023-03-02T06:32:27.351Z,56.65
2023-03-02T06:35:29.807Z,56.08
2023-03-02T06:38:32.248Z,55.99
2023-03-02T06:41:34.719Z,55.68
2023-03-02T06:44:36.991Z,55.44
2023-03-02T06:47:39.449Z,55.88
2023-03-02T06:50:42.489Z,55.62
2023-03-02T06:53:49.082Z,55.66
2023-03-02T06:56:51.457Z,55.41
2023-03-02T06:59:55.348Z,53.12
2023-03-02T07:03:15.002Z,54.43
2023-03-02T07:06:18.868Z,53.63
2023-03-02T07:09:22.560Z,52.91
2023-03-02T07:12:28.167Z,51.83
2023-03-02T07:15:33.828Z,51.95
2023-03-02T07:18:41.320Z,51.20
2023-03-02T07:21:43.864Z,51.06
2023-03-02T07:24:50.085Z,50.55
2023-03-02T07:27:52.851Z,50.79
2023-03-02T07:30:59.870Z,50.73
2023-03-02T07:34:05.459Z,50.84
2023-03-02T07:37:08.865Z,50.82
2023-03-02T07:40:13.118Z,50.34
2023-03-02T07:43:21.029Z,50.30
2023-03-02T07:46:41.875Z,49.59
2023-03-02T07:49:59.122Z,47.32
2023-03-02T07:53:03.210Z,46.45
2023-03-02T07:56:10.287Z,47.94
2023-03-02T07:59:17.437Z,46.32
2023-03-02T08:02:22.604Z,44.97
2023-03-02T08:05:54.810Z,43.09
2023-03-02T08:09:16.822Z,43.75
2023-03-02T08:13:36.188Z,44.10
2023-03-02T08:16:51.994Z,43.76
2023-03-02T08:19:57.022Z,44.45
2023-03-02T08:23:05.814Z,44.34
2023-03-02T08:26:11.021Z,44.14
2023-03-02T08:29:15.224Z,43.67
2023-03-02T08:32:21.917Z,43.14
2023-03-02T08:35:25.444Z,43.06
2023-03-02T08:38:30.582Z,42.76
2023-03-02T08:41:35.617Z,41.92
2023-03-02T08:44:39.762Z,42.34
2023-03-02T08:47:42.479Z,42.51
2023-03-02T08:50:57.293Z,42.82
2023-03-02T08:54:00.882Z,42.18
2023-03-02T08:57:11.904Z,41.33
2023-03-02T09:00:18.051Z,41.89
2023-03-02T09:03:29.240Z,42.33
2023-03-02T09:06:39.413Z,41.91
2023-03-02T09:09:43.255Z,41.66
2023-03-02T09:12:54.341Z,41.82
2023-03-02T09:16:22.179Z,41.93
2023-03-02T09:19:44.264Z,41.45
2023-03-02T09:22:55.433Z,41.67
2023-03-02T09:25:59.954Z,41.30
2023-03-02T09:29:14.189Z,40.95
2023-03-02T09:32:35.945Z,41.70
2023-03-02T09:35:44.948Z,41.72
2023-03-02T09:39:06.994Z,42.15
2023-03-02T09:46:25.810Z,41.51
2023-03-02T09:50:04.442Z,41.74
2023-03-02T09:53:46.102Z,41.82
2023-03-02T10:00:41.910Z,41.95
2023-03-02T10:04:05.424Z,40.89
2023-03-02T10:12:18.007Z,40.99
2023-03-02T10:16:02.497Z,40.98
2023-03-02T10:19:32.800Z,41.97
2023-03-02T10:22:46.380Z,41.22
2023-03-02T10:26:05.254Z,41.92
2023-03-02T10:29:11.017Z,40.72
2023-03-02T10:32:22.556Z,41.53
2023-03-02T10:35:28.114Z,41.84
2023-03-02T10:38:32.974Z,41.73
2023-03-02T10:41:43.690Z,41.90
2023-03-02T10:44:56.153Z,42.56
2023-03-02T10:48:23.589Z,41.59
2023-03-02T10:51:44.138Z,42.36
2023-03-02T10:54:50.286Z,42.63
2023-03-02T11:07:36.179Z,43.52
2023-03-02T11:10:51.098Z,44.20
2023-03-02T11:13:57.245Z,44.21
2023-03-02T11:17:23.961Z,44.33
2023-03-02T11:20:42.067Z,44.01
2023-03-02T11:24:19.691Z,45.40
2023-03-02T11:27:28.550Z,45.40
2023-03-02T11:30:40.015Z,46.07
2023-03-02T11:34:24.995Z,45.22
2023-03-02T11:37:52.663Z,45.35
2023-03-02T11:41:01.016Z,45.37
2023-03-02T11:44:40.282Z,45.31
2023-03-02T11:48:03.303Z,45.40
2023-03-02T11:51:15.101Z,44.67
2023-03-02T11:54:47.311Z,44.94
2023-03-02T11:57:57.875Z,43.82
2023-03-02T12:01:04.801Z,44.41
2023-03-02T12:08:07.348Z,45.46
2023-03-02T12:11:22.187Z,44.86
2023-03-02T12:14:31.778Z,44.50
2023-03-02T12:17:48.326Z,44.35
2023-03-02T12:21:09.485Z,43.95
2023-03-02T12:24:29.296Z,43.44
2023-03-02T12:27:43.233Z,43.19
2023-03-02T12:30:57.393Z,43.01
2023-03-02T12:34:32.951Z,44.07
2023-03-02T12:37:59.892Z,43.79
2023-03-02T12:42:06.025Z,44.05
2023-03-02T12:45:38.652Z,43.97
2023-03-02T12:49:00.037Z,43.27
2023-03-02T12:52:37.075Z,43.16
2023-03-02T12:55:39.849Z,42.71
2023-03-02T12:58:56.114Z,42.85
2023-03-02T13:02:14.596Z,42.86
2023-03-02T13:05:23.559Z,43.17
2023-03-02T13:08:29.197Z,43.33
2023-03-02T13:11:35.132Z,43.59
2023-03-02T13:14:43.157Z,43.10
2023-03-02T13:17:55.285Z,43.05
2023-03-02T13:21:38.872Z,43.62
2023-03-02T13:25:00.588Z,43.38
2023-03-02T13:28:08.248Z,43.71
2023-03-02T13:31:30.311Z,44.06
2023-03-02T13:34:38.235Z,43.95
2023-03-02T13:37:44.757Z,44.14
2023-03-02T13:40:52.447Z,44.11
2023-03-02T13:44:23.903Z,44.08
2023-03-02T13:47:28.934Z,44.80
2023-03-02T13:50:33.359Z,44.92
2023-03-02T13:53:38.436Z,44.57
2023-03-02T13:56:47.170Z,44.31
2023-03-02T13:59:53.413Z,44.86
2023-03-02T14:02:57.613Z,44.75
2023-03-02T14:06:09.157Z,45.18
2023-03-02T14:09:16.296Z,45.50
2023-03-02T14:12:38.359Z,45.12
2023-03-02T14:15:51.932Z,44.92
2023-03-02T14:19:24.987Z,44.98
2023-03-02T14:22:42.033Z,44.97
2023-03-02T14:25:50.102Z,45.31
2023-03-02T14:29:04.903Z,45.31
2023-03-02T14:32:11.152Z,44.85
2023-03-02T14:35:19.909Z,45.00
2023-03-02T14:38:25.499Z,45.30
2023-03-02T14:41:29.379Z,46.29
2023-03-02T14:44:33.297Z,45.65
2023-03-02T14:47:35.576Z,46.20
2023-03-02T14:50:46.044Z,46.57
2023-03-02T14:53:52.646Z,46.01
2023-03-02T14:56:55.200Z,45.24
2023-03-02T15:00:10.657Z,44.92
2023-03-02T15:03:37.521Z,44.78
2023-03-02T15:06:43.660Z,45.35
2023-03-02T15:09:49.165Z,45.64
2023-03-02T15:12:52.236Z,45.94
2023-03-02T15:15:57.619Z,45.48
2023-03-02T15:19:03.012Z,46.38
2023-03-02T15:22:05.582Z,46.84
2023-03-02T15:25:08.638Z,46.39
2023-03-02T15:28:11.161Z,46.56
2023-03-02T15:31:16.818Z,46.66
2023-03-02T15:34:19.835Z,47.19
2023-03-02T15:37:24.004Z,46.93
2023-03-02T15:40:26.470Z,48.01
2023-03-02T15:43:34.149Z,48.10
2023-03-02T15:46:36.581Z,48.16
2023-03-02T15:49:39.685Z,47.63
2023-03-02T15:52:49.725Z,47.97
2023-03-02T15:55:52.801Z,47.65
2023-03-02T15:58:55.711Z,48.32
2023-03-02T16:01:59.896Z,48.34
2023-03-02T16:05:05.508Z,48.45
2023-03-02T16:08:11.696Z,48.88
2023-03-02T16:11:18.743Z,49.41
2023-03-02T16:14:21.115Z,49.62
2023-03-02T16:17:23.687Z,49.29
2023-03-02T16:20:29.109Z,49.56
2023-03-02T16:23:31.971Z,49.23
2023-03-02T16:26:37.822Z,50.05
2023-03-02T16:29:43.720Z,50.20
2023-03-02T16:32:46.998Z,49.61
2023-03-02T16:35:53.699Z,50.15
2023-03-02T16:38:56.142Z,50.38
2023-03-02T16:42:01.638Z,50.27
2023-03-02T16:45:05.957Z,50.72
2023-03-02T16:48:08.767Z,51.02
2023-03-02T16:51:13.178Z,50.98
2023-03-02T16:54:22.660Z,51.57
2023-03-02T16:57:25.403Z,52.34
2023-03-02T17:00:31.525Z,52.75
2023-03-02T17:03:34.219Z,53.11
2023-03-02T17:06:40.104Z,54.22
2023-03-02T17:09:44.458Z,54.24
2023-03-02T17:12:47.020Z,54.59
2023-03-02T17:15:50.448Z,55.22
2023-03-02T17:18:53.424Z,55.19
2023-03-02T17:22:00.748Z,55.52
2023-03-02T17:25:04.729Z,55.66
2023-03-02T17:28:07.464Z,55.92
2023-03-02T17:31:10.747Z,55.82
2023-03-02T17:34:14.819Z,55.88
2023-03-02T17:37:18.261Z,56.31
2023-03-02T17:40:22.415Z,55.63
2023-03-02T17:43:24.717Z,56.30
2023-03-02T17:46:27.564Z,56.54
2023-03-02T17:49:31.131Z,57.46
2023-03-02T17:52:33.480Z,57.32
2023-03-02T17:55:36.206Z,57.12
2023-03-02T17:58:44.979Z,57.12
2023-03-02T18:01:48.744Z,57.92
2023-03-02T18:04:51.373Z,57.40
2023-03-02T18:07:54.878Z,57.69
2023-03-02T18:10:57.503Z,58.07
2023-03-02T18:14:00.478Z,58.53
2023-03-02T18:17:05.750Z,58.40
2023-03-02T18:20:10.066Z,58.85
2023-03-02T18:23:14.388Z,59.24
2023-03-02T18:26:17.350Z,60.74
2023-03-02T18:29:20.752Z,61.10
2023-03-02T18:32:23.544Z,61.40
2023-03-02T18:35:26.356Z,62.58
2023-03-02T18:38:31.090Z,62.78
2023-03-02T18:41:34.776Z,62.55
2023-03-02T18:44:37.529Z,63.75
2023-03-02T18:47:46.291Z,63.35
2023-03-02T18:50:49.319Z,63.63
2023-03-02T18:53:53.815Z,63.87
2023-03-02T18:56:56.481Z,63.83
2023-03-02T18:59:58.670Z,63.39
2023-03-02T19:03:02.525Z,63.91
2023-03-02T19:06:07.508Z,64.72
2023-03-02T19:09:11.347Z,64.15
2023-03-02T19:12:14.097Z,64.55
2023-03-02T19:15:16.673Z,64.23
2023-03-02T19:18:21.090Z,64.79
2023-03-02T19:21:24.144Z,63.91
2023-03-02T19:24:26.651Z,65.11
2023-03-02T19:27:30.412Z,65.68
2023-03-02T19:30:37.001Z,64.96
2023-03-02T19:33:42.132Z,65.20
2023-03-02T19:36:45.082Z,65.28
2023-03-02T19:39:47.791Z,65.42
2023-03-02T19:42:53.250Z,64.84
2023-03-02T19:45:56.801Z,64.90
2023-03-02T19:49:00.577Z,65.11
2023-03-02T19:52:04.659Z,65.26
2023-03-02T19:55:10.050Z,65.01
2023-03-02T19:58:17.883Z,65.13
2023-03-02T20:01:24.926Z,65.78
2023-03-02T20:04:28.536Z,65.89
2023-03-02T20:07:31.452Z,66.21
2023-03-02T20:10:37.707Z,66.06
2023-03-02T20:13:40.484Z,66.03
2023-03-02T20:16:43.385Z,66.87
2023-03-02T20:19:49.698Z,67.40
2023-03-02T20:22:52.573Z,68.25
2023-03-02T20:25:55.783Z,67.22
2023-03-02T20:28:59.794Z,67.29
2023-03-02T20:32:06.241Z,68.01
2023-03-02T20:35:10.639Z,67.02
2023-03-02T20:38:20.744Z,67.38
2023-03-02T20:41:23.640Z,68.04
2023-03-02T20:44:27.022Z,68.73
2023-03-02T20:47:30.305Z,68.63
2023-03-02T20:50:35.218Z,68.61
2023-03-02T20:53:37.671Z,68.22
2023-03-02T20:56:40.456Z,69.68
2023-03-02T20:59:46.148Z,69.76
2023-03-02T21:02:49.985Z,69.67
2023-03-02T21:05:52.827Z,70.03
2023-03-02T21:08:57.046Z,69.78
2023-03-02T21:11:59.803Z,69.71
2023-03-02T21:15:03.913Z,69.22
2023-03-02T21:18:06.220Z,69.27
2023-03-02T21:21:08.783Z,69.79
2023-03-02T21:24:14.714Z,70.02
2023-03-02T21:27:17.335Z,69.86
2023-03-02T21:30:31.831Z,69.60
2023-03-02T21:33:34.537Z,69.54
2023-03-02T21:36:36.895Z,69.71
2023-03-02T21:39:39.201Z,70.40
2023-03-02T21:42:43.615Z,70.50
2023-03-02T21:45:46.901Z,70.13
2023-03-02T21:48:50.719Z,70.74
2023-03-02T21:51:52.718Z,70.35
2023-03-02T21:54:55.103Z,70.58
2023-03-02T21:57:58.558Z,70.61
2023-03-02T22:01:03.941Z,70.20
2023-03-02T22:04:06.563Z,70.66
2023-03-02T22:07:09.115Z,71.39
2023-03-02T22:10:33.680Z,72.00
2023-03-02T22:13:37.570Z,72.10
2023-03-02T22:16:42.484Z,71.79
2023-03-02T22:19:45.083Z,72.35
2023-03-02T22:22:49.967Z,72.37
2023-03-02T22:26:00.936Z,72.64
2023-03-02T22:29:13.477Z,72.96
2023-03-02T22:32:24.779Z,72.83
2023-03-02T22:35:28.103Z,72.69
2023-03-02T22:38:34.484Z,72.96
2023-03-02T22:41:36.740Z,74.01
2023-03-02T22:44:39.612Z,74.58
2023-03-02T22:47:43.747Z,75.26
2023-03-02T22:50:49.367Z,74.27
2023-03-02T22:53:53.669Z,74.53
2023-03-02T22:56:57.929Z,73.90
2023-03-02T23:00:14.343Z,73.62
2023-03-02T23:03:28.169Z,73.52
2023-03-02T23:06:38.320Z,72.98
2023-03-02T23:09:40.938Z,72.93
2023-03-02T23:12:43.836Z,73.16
2023-03-02T23:15:47.740Z,73.17
2023-03-02T23:18:51.136Z,73.52
2023-03-02T23:21:53.773Z,74.08
2023-03-02T23:24:56.727Z,73.45
2023-03-02T23:27:59.186Z,72.69
2023-03-02T23:31:01.534Z,73.32
2023-03-02T23:34:04.340Z,73.75
2023-03-02T23:37:06.659Z,74.15
2023-03-02T23:40:10.183Z,74.03
2023-03-02T23:43:12.498Z,73.55
2023-03-02T23:46:15.517Z,73.74
2023-03-02T23:49:18.004Z,73.87
2023-03-02T23:52:20.550Z,73.73
2023-03-02T23:55:24.228Z,73.74
2023-03-02T23:58:26.677Z,73.78
